sensor_id;sensor_type;location;lat;lon;timestamp;pressure;altitude;pressure_sealevel;temperature;humidity
48386;BME280;34644;47.964;7.982;2024-02-21T00:03:21;97650.28;;;17.46;62.89
48386;BME280;34644;47.964;7.982;2024-02-21T00:10:22;97635.34;;;17.45;62.89
48386;BME280;34644;47.964;7.982;2024-02-21T00:17:22;97631.63;;;17.46;62.87
48386;BME280;34644;47.964;7.982;2024-02-21T00:24:22;97632.19;;;17.48;62.84
48386;BME280;34644;47.964;7.982;2024-02-21T00:31:22;97633.78;;;17.49;62.67
48386;BME280;34644;47.964;7.982;2024-02-21T00:38:23;97632.19;;;17.48;62.82
48386;BME280;34644;47.964;7.982;2024-02-21T00:45:23;97629.53;;;17.48;62.72
48386;BME280;34644;47.964;7.982;2024-02-21T00:52:23;97634.84;;;17.48;62.66
48386;BME280;34644;47.964;7.982;2024-02-21T00:59:23;97628.44;;;17.49;62.62
48386;BME280;34644;47.964;7.982;2024-02-21T01:06:24;97613.53;;;17.48;62.53
48386;BME280;34644;47.964;7.982;2024-02-21T01:13:24;97600.19;;;17.48;62.54
48386;BME280;34644;47.964;7.982;2024-02-21T01:20:24;97594.06;;;17.47;62.49
48386;BME280;34644;47.964;7.982;2024-02-21T01:27:25;97574.59;;;17.47;62.60
48386;BME280;34644;47.964;7.982;2024-02-21T01:34:25;97572.75;;;17.47;62.42
48386;BME280;34644;47.964;7.982;2024-02-21T01:41:25;97561.28;;;17.47;62.39
48386;BME280;34644;47.964;7.982;2024-02-21T01:48:25;97537.28;;;17.47;62.45
48386;BME280;34644;47.964;7.982;2024-02-21T01:55:26;97513.56;;;17.45;62.43
48386;BME280;34644;47.964;7.982;2024-02-21T02:02:30;97515.44;;;17.45;62.40
48386;BME280;34644;47.964;7.982;2024-02-21T02:09:30;97502.91;;;17.45;62.47
48386;BME280;34644;47.964;7.982;2024-02-21T02:16:31;97486.38;;;17.43;62.32
48386;BME280;34644;47.964;7.982;2024-02-21T02:23:31;97466.94;;;17.43;62.36
48386;BME280;34644;47.964;7.982;2024-02-21T02:30:35;97452.78;;;17.42;62.29
48386;BME280;34644;47.964;7.982;2024-02-21T02:37:36;97456.28;;;17.43;62.16
48386;BME280;34644;47.964;7.982;2024-02-21T02:44:38;97457.31;;;17.42;62.25
48386;BME280;34644;47.964;7.982;2024-02-21T02:51:44;97450.38;;;17.41;62.22
48386;BME280;34644;47.964;7.982;2024-02-21T02:58:45;97445.03;;;17.41;62.23
48386;BME280;34644;47.964;7.982;2024-02-21T03:05:45;97434.38;;;17.41;62.26
48386;BME280;34644;47.964;7.982;2024-02-21T03:12:45;97427.47;;;17.40;62.27
48386;BME280;34644;47.964;7.982;2024-02-21T03:19:46;97409.63;;;17.40;62.23
48386;BME280;34644;47.964;7.982;2024-02-21T03:26:46;97400.84;;;17.40;62.07
48386;BME280;34644;47.964;7.982;2024-02-21T03:33:48;97394.94;;;17.38;62.10
48386;BME280;34644;47.964;7.982;2024-02-21T03:40:48;97380.56;;;17.39;62.31
48386;BME280;34644;47.964;7.982;2024-02-21T03:47:48;97386.94;;;17.38;62.07
48386;BME280;34644;47.964;7.982;2024-02-21T03:54:48;97380.03;;;17.36;62.13
48386;BME280;34644;47.964;7.982;2024-02-21T04:01:52;97389.06;;;17.35;62.16
48386;BME280;34644;47.964;7.982;2024-02-21T04:08:52;97379.47;;;17.34;62.17
48386;BME280;34644;47.964;7.982;2024-02-21T04:15:53;97370.41;;;17.35;62.15
48386;BME280;34644;47.964;7.982;2024-02-21T04:22:53;97364.56;;;17.33;62.15
48386;BME280;34644;47.964;7.982;2024-02-21T04:29:53;97348.56;;;17.33;62.01
48386;BME280;34644;47.964;7.982;2024-02-21T04:36:54;97320.31;;;17.32;61.93
48386;BME280;34644;47.964;7.982;2024-02-21T04:43:54;97312.31;;;17.32;62.06
48386;BME280;34644;47.964;7.982;2024-02-21T04:50:55;97320.84;;;17.29;62.14
48386;BME280;34644;47.964;7.982;2024-02-21T04:57:55;97344.81;;;17.29;62.28
48386;BME280;34644;47.964;7.982;2024-02-21T05:04:55;97326.69;;;17.26;62.53
48386;BME280;34644;47.964;7.982;2024-02-21T05:11:56;97302.69;;;17.21;62.78
48386;BME280;34644;47.964;7.982;2024-02-21T05:18:58;97295.47;;;17.16;62.85
48386;BME280;34644;47.964;7.982;2024-02-21T05:25:59;97298.38;;;17.15;63.42
48386;BME280;34644;47.964;7.982;2024-02-21T05:33:03;97285.59;;;17.12;63.47
48386;BME280;34644;47.964;7.982;2024-02-21T05:40:03;97297.84;;;17.13;63.57
48386;BME280;34644;47.964;7.982;2024-02-21T05:47:04;97287.72;;;17.10;63.73
48386;BME280;34644;47.964;7.982;2024-02-21T05:54:04;97282.94;;;17.12;63.36
48386;BME280;34644;47.964;7.982;2024-02-21T06:01:04;97284.28;;;17.14;63.37
48386;BME280;34644;47.964;7.982;2024-02-21T06:08:06;97276.56;;;17.13;63.33
48386;BME280;34644;47.964;7.982;2024-02-21T06:15:08;97272.00;;;17.13;63.38
48386;BME280;34644;47.964;7.982;2024-02-21T06:22:08;97279.22;;;17.13;63.29
48386;BME280;34644;47.964;7.982;2024-02-21T06:29:09;97261.63;;;17.12;63.09
48386;BME280;34644;47.964;7.982;2024-02-21T06:36:09;97249.09;;;17.12;63.07
48386;BME280;34644;47.964;7.982;2024-02-21T06:43:09;97258.69;;;17.13;63.01
48386;BME280;34644;47.964;7.982;2024-02-21T06:50:09;97257.91;;;17.13;63.06
48386;BME280;34644;47.964;7.982;2024-02-21T06:57:10;97248.56;;;17.10;62.95
48386;BME280;34644;47.964;7.982;2024-02-21T07:04:11;97252.03;;;17.11;63.01
48386;BME280;34644;47.964;7.982;2024-02-21T07:11:11;97238.97;;;17.09;62.90
48386;BME280;34644;47.964;7.982;2024-02-21T07:18:11;97242.44;;;17.10;62.95
48386;BME280;34644;47.964;7.982;2024-02-21T07:25:11;97228.56;;;17.08;63.11
48386;BME280;34644;47.964;7.982;2024-02-21T07:32:12;97225.38;;;17.06;62.98
48386;BME280;34644;47.964;7.982;2024-02-21T07:39:12;97204.06;;;17.06;63.16
48386;BME280;34644;47.964;7.982;2024-02-21T07:46:12;97198.22;;;17.04;63.24
48386;BME280;34644;47.964;7.982;2024-02-21T07:53:14;97195.53;;;17.04;63.30
48386;BME280;34644;47.964;7.982;2024-02-21T08:00:15;97201.13;;;17.02;63.36
48386;BME280;34644;47.964;7.982;2024-02-21T08:07:19;97216.31;;;17.02;63.40
48386;BME280;34644;47.964;7.982;2024-02-21T08:14:20;97209.38;;;17.00;63.31
48386;BME280;34644;47.964;7.982;2024-02-21T08:21:20;97211.25;;;17.00;63.41
48386;BME280;34644;47.964;7.982;2024-02-21T08:28:21;97198.19;;;16.98;63.51
48386;BME280;34644;47.964;7.982;2024-02-21T08:35:21;97186.72;;;16.98;63.40
48386;BME280;34644;47.964;7.982;2024-02-21T08:42:24;97176.06;;;16.98;63.49
48386;BME280;34644;47.964;7.982;2024-02-21T08:49:25;97168.34;;;16.96;63.56
48386;BME280;34644;47.964;7.982;2024-02-21T08:56:29;97166.75;;;16.95;63.70
48386;BME280;34644;47.964;7.982;2024-02-21T09:03:33;97160.09;;;16.93;63.78
48386;BME280;34644;47.964;7.982;2024-02-21T09:10:33;97147.03;;;16.91;63.70
48386;BME280;34644;47.964;7.982;2024-02-21T09:17:34;97143.31;;;16.92;63.90
48386;BME280;34644;47.964;7.982;2024-02-21T09:24:36;97121.47;;;16.90;64.07
48386;BME280;34644;47.964;7.982;2024-02-21T09:31:37;97117.22;;;16.89;63.94
48386;BME280;34644;47.964;7.982;2024-02-21T09:38:39;97115.63;;;16.88;64.20
48386;BME280;34644;47.964;7.982;2024-02-21T09:45:39;97118.28;;;16.88;64.02
48386;BME280;34644;47.964;7.982;2024-02-21T09:52:40;97117.22;;;16.89;64.08
48386;BME280;34644;47.964;7.982;2024-02-21T09:59:43;97104.97;;;16.88;64.20
48386;BME280;34644;47.964;7.982;2024-02-21T10:06:43;97102.31;;;16.88;64.15
48386;BME280;34644;47.964;7.982;2024-02-21T10:13:44;97095.94;;;16.89;64.13
48386;BME280;34644;47.964;7.982;2024-02-21T10:20:45;97074.06;;;16.87;64.31
48386;BME280;34644;47.964;7.982;2024-02-21T10:27:45;97067.16;;;16.86;64.27
48386;BME280;34644;47.964;7.982;2024-02-21T10:34:48;97045.88;;;16.86;64.43
48386;BME280;34644;47.964;7.982;2024-02-21T10:41:51;97033.59;;;16.85;64.49
48386;BME280;34644;47.964;7.982;2024-02-21T10:56:10;97024.00;;;16.84;64.71
48386;BME280;34644;47.964;7.982;2024-02-21T11:03:12;97002.47;;;16.86;64.75
48386;BME280;34644;47.964;7.982;2024-02-21T11:10:23;96984.88;;;16.85;64.63
48386;BME280;34644;47.964;7.982;2024-02-21T11:17:24;96969.16;;;16.83;64.83
48386;BME280;34644;47.964;7.982;2024-02-21T11:24:27;96955.59;;;16.85;64.82
48386;BME280;34644;47.964;7.982;2024-02-21T11:31:39;96943.06;;;16.85;64.86
48386;BME280;34644;47.964;7.982;2024-02-21T11:38:40;96926.31;;;16.85;65.02
48386;BME280;34644;47.964;7.982;2024-02-21T11:45:40;96919.94;;;16.86;65.03
48386;BME280;34644;47.964;7.982;2024-02-21T11:52:40;96911.13;;;16.85;65.05
48386;BME280;34644;47.964;7.982;2024-02-21T11:59:41;96883.72;;;16.85;65.02
48386;BME280;34644;47.964;7.982;2024-02-21T12:06:41;96886.94;;;16.87;65.10
48386;BME280;34644;47.964;7.982;2024-02-21T12:13:42;96879.19;;;16.85;65.08
48386;BME280;34644;47.964;7.982;2024-02-21T12:20:42;96869.34;;;16.86;65.03
48386;BME280;34644;47.964;7.982;2024-02-21T12:27:42;96849.66;;;16.87;65.01
48386;BME280;34644;47.964;7.982;2024-02-21T12:34:43;96842.47;;;16.87;65.14
48386;BME280;34644;47.964;7.982;2024-02-21T12:41:43;96832.91;;;16.86;64.91
48386;BME280;34644;47.964;7.982;2024-02-21T12:48:47;96818.50;;;16.87;65.05
48386;BME280;34644;47.964;7.982;2024-02-21T12:55:51;96809.75;;;16.87;64.95
48386;BME280;34644;47.964;7.982;2024-02-21T13:02:51;96780.19;;;16.88;64.93
48386;BME280;34644;47.964;7.982;2024-02-21T13:09:51;96760.78;;;16.88;65.06
48386;BME280;34644;47.964;7.982;2024-02-21T13:16:52;96745.84;;;16.87;64.99
48386;BME280;34644;47.964;7.982;2024-02-21T13:23:52;96740.25;;;16.88;65.05
48386;BME280;34644;47.964;7.982;2024-02-21T13:30:53;96733.34;;;16.87;65.05
48386;BME280;34644;47.964;7.982;2024-02-21T13:37:53;96718.19;;;16.88;65.13
48386;BME280;34644;47.964;7.982;2024-02-21T13:44:54;96705.66;;;16.88;64.94
48386;BME280;34644;47.964;7.982;2024-02-21T13:51:54;96688.91;;;16.88;65.06
48386;BME280;34644;47.964;7.982;2024-02-21T13:58:54;96686.25;;;16.88;65.05
48386;BME280;34644;47.964;7.982;2024-02-21T14:05:54;96656.16;;;16.87;65.08
48386;BME280;34644;47.964;7.982;2024-02-21T14:12:55;96652.41;;;16.88;65.21
48386;BME280;34644;47.964;7.982;2024-02-21T14:19:57;96649.75;;;16.88;65.08
48386;BME280;34644;47.964;7.982;2024-02-21T14:26:57;96644.44;;;16.88;65.05
48386;BME280;34644;47.964;7.982;2024-02-21T14:33:57;96619.41;;;16.89;65.04
48386;BME280;34644;47.964;7.982;2024-02-21T14:40:58;96614.09;;;16.89;65.05
48386;BME280;34644;47.964;7.982;2024-02-21T14:47:58;96608.78;;;16.89;65.08
48386;BME280;34644;47.964;7.982;2024-02-21T14:54:58;96593.59;;;16.90;64.99
48386;BME280;34644;47.964;7.982;2024-02-21T15:01:59;96589.06;;;16.90;64.91
48386;BME280;34644;47.964;7.982;2024-02-21T15:08:59;96587.47;;;16.89;64.90
48386;BME280;34644;47.964;7.982;2024-02-21T15:16:00;96562.44;;;16.90;64.87
48386;BME280;34644;47.964;7.982;2024-02-21T15:23:01;96557.09;;;16.90;64.91
48386;BME280;34644;47.964;7.982;2024-02-21T15:30:04;96544.88;;;16.89;64.82
48386;BME280;34644;47.964;7.982;2024-02-21T15:37:05;96537.97;;;16.88;64.81
48386;BME280;34644;47.964;7.982;2024-02-21T15:44:06;96516.66;;;16.88;64.73
48386;BME280;34644;47.964;7.982;2024-02-21T15:51:07;96514.00;;;16.88;64.77
48386;BME280;34644;47.964;7.982;2024-02-21T15:58:07;96491.94;;;16.88;64.72
48386;BME280;34644;47.964;7.982;2024-02-21T16:05:08;96484.44;;;16.90;64.57
48386;BME280;34644;47.964;7.982;2024-02-21T16:12:11;96470.34;;;16.89;64.62
48386;BME280;34644;47.964;7.982;2024-02-21T16:19:11;96469.28;;;16.90;64.44
48386;BME280;34644;47.964;7.982;2024-02-21T16:26:11;96462.88;;;16.91;64.57
48386;BME280;34644;47.964;7.982;2024-02-21T16:33:12;96450.63;;;16.90;64.45
48386;BME280;34644;47.964;7.982;2024-02-21T16:40:12;96444.53;;;16.90;64.45
48386;BME280;34644;47.964;7.982;2024-02-21T16:47:12;96432.81;;;16.91;64.57
48386;BME280;34644;47.964;7.982;2024-02-21T16:54:13;96436.78;;;16.93;64.59
48386;BME280;34644;47.964;7.982;2024-02-21T17:01:13;96434.09;;;16.93;64.57
48386;BME280;34644;47.964;7.982;2024-02-21T17:08:15;96432.25;;;16.94;64.61
48386;BME280;34644;47.964;7.982;2024-02-21T17:15:15;96417.06;;;16.94;64.60
48386;BME280;34644;47.964;7.982;2024-02-21T17:22:16;96411.75;;;16.94;64.63
48386;BME280;34644;47.964;7.982;2024-02-21T17:29:16;96394.72;;;16.95;64.62
48386;BME280;34644;47.964;7.982;2024-02-21T17:36:16;96385.13;;;16.94;64.53
48386;BME280;34644;47.964;7.982;2024-02-21T17:43:16;96377.16;;;16.94;64.55
48386;BME280;34644;47.964;7.982;2024-02-21T17:50:17;96381.41;;;16.95;64.51
48386;BME280;34644;47.964;7.982;2024-02-21T17:57:17;96370.75;;;16.95;64.42
48386;BME280;34644;47.964;7.982;2024-02-21T18:04:18;96348.66;;;16.95;64.42
48386;BME280;34644;47.964;7.982;2024-02-21T18:11:18;96322.84;;;16.95;64.46
48386;BME280;34644;47.964;7.982;2024-02-21T18:18:18;96325.50;;;16.95;64.44
48386;BME280;34644;47.964;7.982;2024-02-21T18:25:18;96340.66;;;16.95;64.35
48386;BME280;34644;47.964;7.982;2024-02-21T18:32:20;96325.50;;;16.95;64.33
48386;BME280;34644;47.964;7.982;2024-02-21T18:39:23;96317.53;;;16.95;64.31
48386;BME280;34644;47.964;7.982;2024-02-21T18:46:24;96317.81;;;16.94;64.41
48386;BME280;34644;47.964;7.982;2024-02-21T18:53:24;96330.81;;;16.95;64.38
48386;BME280;34644;47.964;7.982;2024-02-21T19:00:24;96318.59;;;16.94;64.38
48386;BME280;34644;47.964;7.982;2024-02-21T19:07:25;96311.38;;;16.95;64.33
48386;BME280;34644;47.964;7.982;2024-02-21T19:14:26;96306.06;;;16.95;64.31
48386;BME280;34644;47.964;7.982;2024-02-21T19:21:26;96302.34;;;16.96;64.29
48386;BME280;34644;47.964;7.982;2024-02-21T19:28:26;96282.91;;;16.95;64.16
48386;BME280;34644;47.964;7.982;2024-02-21T19:35:28;96275.72;;;16.96;64.18
48386;BME280;34644;47.964;7.982;2024-02-21T19:42:28;96273.84;;;16.96;64.05
48386;BME280;34644;47.964;7.982;2024-02-21T19:49:29;96258.69;;;16.97;64.02
48386;BME280;34644;47.964;7.982;2024-02-21T19:56:29;96241.88;;;16.96;63.98
48386;BME280;34644;47.964;7.982;2024-02-21T20:03:29;96218.75;;;16.97;64.09
48386;BME280;34644;47.964;7.982;2024-02-21T20:10:30;96194.78;;;16.97;63.97
48386;BME280;34644;47.964;7.982;2024-02-21T20:17:31;96187.88;;;16.96;63.92
48386;BME280;34644;47.964;7.982;2024-02-21T20:24:31;96194.78;;;16.97;63.94
48386;BME280;34644;47.964;7.982;2024-02-21T20:31:32;96158.03;;;16.99;63.85
48386;BME280;34644;47.964;7.982;2024-02-21T20:38:32;96144.72;;;16.99;64.02
48386;BME280;34644;47.964;7.982;2024-02-21T20:45:32;96129.03;;;16.97;63.82
48386;BME280;34644;47.964;7.982;2024-02-21T20:52:32;96103.47;;;16.96;63.95
48386;BME280;34644;47.964;7.982;2024-02-21T20:59:33;96103.47;;;16.96;63.78
48386;BME280;34644;47.964;7.982;2024-02-21T21:06:33;96105.06;;;16.97;63.74
48386;BME280;34644;47.964;7.982;2024-02-21T21:13:33;96099.75;;;16.97;63.68
48386;BME280;34644;47.964;7.982;2024-02-21T21:20:34;96084.84;;;16.96;63.64
48386;BME280;34644;47.964;7.982;2024-02-21T21:27:35;96082.19;;;16.96;63.57
48386;BME280;34644;47.964;7.982;2024-02-21T21:34:35;96082.19;;;16.96;63.71
48386;BME280;34644;47.964;7.982;2024-02-21T21:41:36;96092.81;;;16.96;63.57
48386;BME280;34644;47.964;7.982;2024-02-21T21:48:36;96082.19;;;16.96;63.53
48386;BME280;34644;47.964;7.982;2024-02-21T21:55:36;96088.31;;;16.97;63.48
48386;BME280;34644;47.964;7.982;2024-02-21T22:02:37;96085.38;;;16.98;63.35
48386;BME280;34644;47.964;7.982;2024-02-21T22:09:37;96078.44;;;16.97;63.38
48386;BME280;34644;47.964;7.982;2024-02-21T22:16:38;96077.78;;;17.06;62.29
48386;BME280;34644;47.964;7.982;2024-02-21T22:23:38;96070.69;;;17.01;62.75
48386;BME280;34644;47.964;7.982;2024-02-21T22:30:38;96072.84;;;16.99;62.80
48386;BME280;34644;47.964;7.982;2024-02-21T22:37:38;96066.72;;;16.98;62.86
48386;BME280;34644;47.964;7.982;2024-02-21T22:44:42;96057.66;;;16.99;62.83
48386;BME280;34644;47.964;7.982;2024-02-21T22:51:42;96031.03;;;16.99;62.84
48386;BME280;34644;47.964;7.982;2024-02-21T22:58:43;96042.50;;;17.00;62.90
48386;BME280;34644;47.964;7.982;2024-02-21T23:05:43;96044.06;;;17.01;62.75
48386;BME280;34644;47.964;7.982;2024-02-21T23:12:43;96051.25;;;17.00;62.74
48386;BME280;34644;47.964;7.982;2024-02-21T23:19:44;96032.34;;;17.02;62.78
48386;BME280;34644;47.964;7.982;2024-02-21T23:26:44;96035.78;;;17.03;62.58
48386;BME280;34644;47.964;7.982;2024-02-21T23:33:44;96013.41;;;17.04;62.58
48386;BME280;34644;47.964;7.982;2024-02-21T23:40:44;96011.81;;;17.03;62.68
48386;BME280;34644;47.964;7.982;2024-02-21T23:47:45;95992.91;;;17.04;62.61
48386;BME280;34644;47.964;7.982;2024-02-21T23:54:45;95972.69;;;17.03;62.58
